Time,TemperatureF,DewpointF,PressureIn,WindDirection,WindDirectionDegrees,WindSpeedMPH,WindSpeedGustMPH,Humidity,HourlyPrecipIn,Conditions,Clouds,dailyrainin,SolarRadiationWatts/m^2,SoftwareType,DateUTC
2013-01-12 00:01:00,40.1,27.3,30.05,NNW,338,4.6,4.6,60,0.00,CLR,OVC,0.00,0.0,WeatherDisplay:10.37,2013-01-12 08:01:00,
2013-01-12 00:06:00,40.3,27.9,30.05,NE,45,4.6,4.6,61,0.00,CLR,OVC,0.00,0.0,WeatherDisplay:10.37,2013-01-12 08:06:00,
2013-01-12 00:11:00,40.5,28.1,30.05,NNW,338,3.5,3.5,61,0.00,CLR,OVC,0.00,0.0,WeatherDisplay:10.37,2013-01-12 08:11:00,
2013-01-12 00:16:00,40.3,28.3,30.05,NW,315,3.5,3.5,62,0.00,CLR,OVC,0.00,0.0,WeatherDisplay:10.37,2013-01-12 08:16:00,
2013-01-12 00:21:00,40.3,28.3,30.05,NW,315,2.3,2.5,62,0.00,CLR,OVC,0.00,0.0,WeatherDisplay:10.37,2013-01-12 08:21:00,
2013-01-12 00:26:00,40.3,28.7,30.05,WNW,292,2.3,2.3,63,0.00,CLR,OVC,0.00,0.0,WeatherDisplay:10.37,2013-01-12 08:26:00,
2013-01-12 00:31:00,40.1,28.5,30.05,NW,315,3.5,3.5,63,0.00,CLR,OVC,0.00,0.0,WeatherDisplay:10.37,2013-01-12 08:31:00,
2013-01-12 00:36:00,40.1,28.9,30.05,NNW,338,2.3,2.3,64,0.00,CLR,OVC,0.00,0.0,WeatherDisplay:10.37,2013-01-12 08:36:00,
2013-01-12 00:41:00,40.3,29.4,30.05,NW,315,3.9,3.9,65,0.00,CLR,OVC,0.00,0.0,WeatherDisplay:10.37,2013-01-12 08:41:00,
2013-01-12 00:46:00,39.9,29.1,30.05,West,270,3.5,3.5,65,0.00,CLR,OVC,0.00,0.0,WeatherDisplay:10.37,2013-01-12 08:46:00,
2013-01-12 00:51:00,40.3,29.8,30.05,NNW,338,3.5,3.5,66,0.00,CLR,OVC,0.00,0.0,WeatherDisplay:10.37,2013-01-12 08:51:00,
2013-01-12 00:56:00,40.3,29.8,30.05,NW,315,3.0,3.0,66,0.00,CLR,OVC,0.00,0.0,WeatherDisplay:10.37,2013-01-12 08:56:00,
2013-01-12 01:01:00,40.1,29.6,30.05,NW,315,3.5,3.5,66,0.00,CLR,OVC,0.00,0.0,WeatherDisplay:10.37,2013-01-12 09:01:00,
2013-01-12 01:06:00,39.9,29.5,30.05,NW,315,4.6,4.6,66,0.00,CLR,OVC,0.00,0.0,WeatherDisplay:10.37,2013-01-12 09:06:00,
2013-01-12 01:11:00,40.1,30.0,30.05,NNW,338,5.8,5.8,67,0.00,CLR,OVC,0.00,0.0,WeatherDisplay:10.37,2013-01-12 09:11:00,
2013-01-12 01:16:00,40.3,30.2,30.05,NW,315,4.6,4.6,67,0.00,CLR,OVC,0.00,0.0,WeatherDisplay:10.37,2013-01-12 09:16:00,
2013-01-12 01:21:00,40.5,30.4,30.05,NW,315,5.8,5.8,67,0.00,CLR,OVC,0.00,0.0,WeatherDisplay:10.37,2013-01-12 09:21:00,
2013-01-12 01:26:00,40.5,30.4,30.05,NW,315,4.6,4.6,67,0.00,CLR,OVC,0.00,0.0,WeatherDisplay:10.37,2013-01-12 09:26:00,
2013-01-12 01:31:00,40.5,30.4,30.05,NNW,338,3.5,3.5,67,0.00,CLR,OVC,0.00,0.0,WeatherDisplay:10.37,2013-01-12 09:31:00,
2013-01-12 01:36:00,40.6,30.2,30.05,NNW,338,3.5,3.5,66,0.00,CLR,OVC,0.00,0.0,WeatherDisplay:10.37,2013-01-12 09:36:00,
2013-01-12 01:41:00,40.6,30.5,30.05,NNW,338,4.6,4.6,67,0.00,CLR,OVC,0.00,0.0,WeatherDisplay:10.37,2013-01-12 09:41:00,
2013-01-12 01:46:00,40.6,30.5,30.05,NW,315,5.8,5.8,67,0.00,CLR,OVC,0.00,0.0,WeatherDisplay:10.37,2013-01-12 09:46:00,
2013-01-12 01:51:00,40.5,30.0,30.05,ENE,68,5.8,5.8,66,0.00,CLR,OVC,0.00,0.0,WeatherDisplay:10.37,2013-01-12 09:51:00,
2013-01-12 01:56:00,40.6,30.2,30.05,NW,315,6.9,6.9,66,0.00,CLR,OVC,0.00,0.0,WeatherDisplay:10.37,2013-01-12 09:56:00,
2013-01-12 02:01:00,40.6,30.5,30.05,NNE,22,4.6,4.9,67,0.00,CLR,OVC,0.00,0.0,WeatherDisplay:10.37,2013-01-12 10:01:00,
2013-01-12 02:06:00,40.6,30.5,30.05,NW,315,5.8,5.8,67,0.00,CLR,OVC,0.00,0.0,WeatherDisplay:10.37,2013-01-12 10:06:00,
2013-01-12 02:11:00,40.6,30.5,30.06,NW,315,3.5,3.6,67,0.00,CLR,OVC,0.00,0.0,WeatherDisplay:10.37,2013-01-12 10:11:00,
2013-01-12 02:16:00,40.5,30.4,30.06,NW,315,3.5,3.5,67,0.00,CLR,OVC,0.00,0.0,WeatherDisplay:10.37,2013-01-12 10:16:00,
2013-01-12 02:21:00,40.6,30.5,30.06,WNW,292,4.6,4.6,67,0.00,CLR,OVC,0.00,0.0,WeatherDisplay:10.37,2013-01-12 10:21:00,
2013-01-12 02:26:00,40.5,30.4,30.06,NNW,338,3.5,3.5,67,0.00,CLR,OVC,0.00,0.0,WeatherDisplay:10.37,2013-01-12 10:26:00,
2013-01-12 02:31:00,40.8,30.7,30.06,NW,315,2.3,2.3,67,0.00,CLR,OVC,0.00,0.0,WeatherDisplay:10.37,2013-01-12 10:31:00,
2013-01-12 02:36:00,40.8,30.7,30.06,NW,315,3.5,3.5,67,0.00,CLR,OVC,0.00,0.0,WeatherDisplay:10.37,2013-01-12 10:36:00,
2013-01-12 02:41:00,40.8,30.7,30.06,NW,315,3.5,3.5,67,0.00,CLR,OVC,0.00,0.0,WeatherDisplay:10.37,2013-01-12 10:41:00,
2013-01-12 02:46:00,40.6,30.5,30.06,NW,315,3.5,3.5,67,0.00,CLR,OVC,0.00,0.0,WeatherDisplay:10.37,2013-01-12 10:46:00,
2013-01-12 02:51:00,40.5,30.4,30.06,WNW,292,4.6,4.6,67,0.00,CLR,OVC,0.00,0.0,WeatherDisplay:10.37,2013-01-12 10:51:00,
2013-01-12 02:56:00,40.1,30.0,30.06,West,270,5.8,5.8,67,0.00,CLR,OVC,0.00,0.0,WeatherDisplay:10.37,2013-01-12 10:56:00,
2013-01-12 03:01:00,39.9,29.8,30.06,NW,315,8.1,8.1,67,0.00,CLR,OVC,0.00,0.0,WeatherDisplay:10.37,2013-01-12 11:01:00,
2013-01-12 03:06:00,39.7,29.7,30.06,NW,315,5.8,5.8,67,0.00,CLR,OVC,0.00,0.0,WeatherDisplay:10.37,2013-01-12 11:06:00,
2013-01-12 03:11:00,39.7,29.7,30.06,North,0,6.9,6.9,67,0.00,CLR,OVC,0.00,0.0,WeatherDisplay:10.37,2013-01-12 11:11:00,
2013-01-12 03:16:00,39.6,29.5,30.06,NNW,338,6.9,6.9,67,0.00,CLR,OVC,0.00,0.0,WeatherDisplay:10.37,2013-01-12 11:16:00,
2013-01-12 03:21:00,39.6,29.5,30.06,NW,315,4.6,4.6,67,0.00,CLR,OVC,0.00,0.0,WeatherDisplay:10.37,2013-01-12 11:21:00,
2013-01-12 03:26:00,39.6,29.5,30.06,NNW,338,5.8,5.8,67,0.00,CLR,OVC,0.00,0.0,WeatherDisplay:10.37,2013-01-12 11:26:00,
2013-01-12 03:31:00,39.6,29.5,30.06,NW,315,4.6,4.6,67,0.00,CLR,OVC,0.00,0.0,WeatherDisplay:10.37,2013-01-12 11:31:00,
2013-01-12 03:36:00,39.4,29.0,30.06,NNW,338,6.9,6.9,66,0.00,CLR,OVC,0.00,0.0,WeatherDisplay:10.37,2013-01-12 11:36:00,
2013-01-12 03:41:00,39.6,29.1,30.06,NNW,338,4.6,4.6,66,0.00,CLR,OVC,0.00,0.0,WeatherDisplay:10.37,2013-01-12 11:41:00,
2013-01-12 03:46:00,39.6,29.1,30.06,NW,315,4.6,4.6,66,0.00,CLR,OVC,0.00,0.0,WeatherDisplay:10.37,2013-01-12 11:46:00,
2013-01-12 03:51:00,39.6,29.1,30.06,NW,315,5.8,5.8,66,0.00,CLR,OVC,0.00,0.0,WeatherDisplay:10.37,2013-01-12 11:51:00,
2013-01-12 03:56:00,39.6,29.1,30.06,NNW,338,5.8,5.8,66,0.00,CLR,OVC,0.00,0.0,WeatherDisplay:10.37,2013-01-12 11:56:00,
2013-01-12 04:01:00,39.6,28.8,30.06,NW,315,3.5,3.5,65,0.00,CLR,OVC,0.00,0.0,WeatherDisplay:10.37,2013-01-12 12:01:00,
2013-01-12 04:06:00,39.2,28.4,30.06,NW,315,5.8,5.8,65,0.00,CLR,OVC,0.00,0.0,WeatherDisplay:10.37,2013-01-12 12:06:00,
2013-01-12 04:11:00,39.4,28.6,30.04,NW,315,4.6,4.6,65,0.00,CLR,OVC,0.00,0.0,WeatherDisplay:10.37,2013-01-12 12:11:00,
2013-01-12 04:16:00,39.0,28.2,30.04,NNE,22,5.8,5.8,65,0.00,CLR,OVC,0.00,0.0,WeatherDisplay:10.37,2013-01-12 12:16:00,
2013-01-12 04:21:00,38.8,28.1,30.04,NW,315,5.8,5.8,65,0.00,CLR,OVC,0.00,0.0,WeatherDisplay:10.37,2013-01-12 12:21:00,
2013-01-12 04:26:00,38.5,27.7,30.04,North,0,4.6,4.6,65,0.00,CLR,OVC,0.00,0.0,WeatherDisplay:10.37,2013-01-12 12:26:00,
2013-01-12 04:31:00,38.5,27.7,30.06,WNW,292,5.8,5.8,65,0.00,CLR,OVC,0.00,0.0,WeatherDisplay:10.37,2013-01-12 12:31:00,
2013-01-12 04:36:00,38.1,27.4,30.06,NW,315,5.8,5.8,65,0.00,CLR,OVC,0.00,0.0,WeatherDisplay:10.37,2013-01-12 12:36:00,
2013-01-12 04:41:00,37.9,27.2,30.06,WNW,292,4.8,4.8,65,0.00,CLR,OVC,0.00,0.0,WeatherDisplay:10.37,2013-01-12 12:41:00,
2013-01-12 04:46:00,37.9,27.2,30.06,North,0,5.4,5.4,65,0.00,CLR,OVC,0.00,0.0,WeatherDisplay:10.37,2013-01-12 12:46:00,
2013-01-12 04:51:00,37.8,27.0,30.06,WSW,248,4.6,4.6,65,0.00,CLR,OVC,0.00,0.0,WeatherDisplay:10.37,2013-01-12 12:51:00,
2013-01-12 04:56:00,37.9,27.2,30.06,NW,315,5.8,5.8,65,0.00,CLR,OVC,0.00,0.0,WeatherDisplay:10.37,2013-01-12 12:56:00,
2013-01-12 05:01:00,37.9,27.2,30.06,West,270,6.9,6.9,65,0.00,CLR,OVC,0.00,0.0,WeatherDisplay:10.37,2013-01-12 13:01:00,
2013-01-12 05:06:00,37.9,27.2,30.06,NNW,338,5.8,5.8,65,0.00,CLR,OVC,0.00,0.0,WeatherDisplay:10.37,2013-01-12 13:06:00,
2013-01-12 05:11:00,37.9,27.2,30.06,NNW,338,3.5,3.5,65,0.00,CLR,OVC,0.00,0.0,WeatherDisplay:10.37,2013-01-12 13:11:00,
2013-01-12 05:16:00,37.8,26.7,30.06,NW,315,5.8,5.8,64,0.00,CLR,OVC,0.00,0.0,WeatherDisplay:10.37,2013-01-12 13:16:00,
2013-01-12 05:21:00,37.8,26.7,30.06,WSW,248,3.5,3.5,64,0.00,CLR,OVC,0.00,0.0,WeatherDisplay:10.37,2013-01-12 13:21:00,
2013-01-12 05:26:00,37.8,26.7,30.06,NW,315,6.9,6.9,64,0.00,CLR,OVC,0.00,0.0,WeatherDisplay:10.37,2013-01-12 13:26:00,
2013-01-12 05:31:00,37.6,26.5,30.06,NW,315,6.9,6.9,64,0.00,CLR,OVC,0.00,0.0,WeatherDisplay:10.37,2013-01-12 13:31:00,
2013-01-12 05:36:00,37.9,26.8,30.06,NNE,22,4.6,4.6,64,0.00,CLR,OVC,0.00,0.0,WeatherDisplay:10.37,2013-01-12 13:36:00,
2013-01-12 05:41:00,37.8,26.7,30.06,WNW,292,2.3,2.3,64,0.00,CLR,OVC,0.00,0.0,WeatherDisplay:10.37,2013-01-12 13:41:00,
2013-01-12 05:46:00,37.6,26.1,30.06,NW,315,2.6,2.6,63,0.00,CLR,OVC,0.00,0.0,WeatherDisplay:10.37,2013-01-12 13:46:00,
2013-01-12 05:51:00,37.4,25.9,30.06,WNW,292,2.3,2.3,63,0.00,CLR,OVC,0.00,0.0,WeatherDisplay:10.37,2013-01-12 13:51:00,
2013-01-12 05:56:00,37.4,26.3,30.06,North,0,4.6,4.6,64,0.00,CLR,OVC,0.00,0.0,WeatherDisplay:10.37,2013-01-12 13:56:00,
2013-01-12 06:01:00,37.4,25.9,30.06,North,0,1.4,1.6,63,0.00,CLR,OVC,0.00,0.0,WeatherDisplay:10.37,2013-01-12 14:01:00,
2013-01-12 06:06:00,37.4,25.9,30.06,NE,45,2.3,2.3,63,0.00,CLR,OVC,0.00,0.0,WeatherDisplay:10.37,2013-01-12 14:06:00,
2013-01-12 06:11:00,37.6,26.1,30.09,NW,315,4.6,4.6,63,0.00,CLR,OVC,0.00,0.0,WeatherDisplay:10.37,2013-01-12 14:11:00,
2013-01-12 06:16:00,37.6,26.1,30.09,NW,315,2.3,2.3,63,0.00,CLR,OVC,0.00,0.0,WeatherDisplay:10.37,2013-01-12 14:16:00,
2013-01-12 06:21:00,37.4,25.9,30.09,WNW,292,2.3,2.3,63,0.00,CLR,OVC,0.00,0.0,WeatherDisplay:10.37,2013-01-12 14:21:00,
2013-01-12 06:26:00,37.4,25.6,30.09,NNW,338,3.5,3.5,62,0.00,CLR,OVC,0.00,0.0,WeatherDisplay:10.37,2013-01-12 14:26:00,
2013-01-12 06:31:00,37.6,25.7,30.09,NW,315,1.2,1.5,62,0.00,CLR,OVC,0.00,0.0,WeatherDisplay:10.37,2013-01-12 14:31:00,
2013-01-12 06:36:00,37.4,25.2,30.09,NW,315,0.0,0.6,61,0.00,CLR,OVC,0.00,0.0,WeatherDisplay:10.37,2013-01-12 14:36:00,
2013-01-12 06:41:00,37.2,25.4,30.09,NW,315,1.5,1.5,62,0.00,CLR,OVC,0.00,0.0,WeatherDisplay:10.37,2013-01-12 14:41:00,
2013-01-12 06:46:00,37.2,25.4,30.09,NNW,338,2.3,2.3,62,0.00,CLR,OVC,0.00,0.0,WeatherDisplay:10.37,2013-01-12 14:46:00,
2013-01-12 06:51:00,37.2,25.4,30.09,NW,315,2.3,2.3,62,0.00,CLR,OVC,0.00,0.0,WeatherDisplay:10.37,2013-01-12 14:51:00,
2013-01-12 06:56:00,37.0,24.8,30.09,NW,315,3.0,3.0,61,0.00,CLR,OVC,0.00,0.0,WeatherDisplay:10.37,2013-01-12 14:56:00,
2013-01-12 07:01:00,37.0,24.8,30.09,NNW,338,4.6,4.6,61,0.00,CLR,OVC,0.00,0.0,WeatherDisplay:10.37,2013-01-12 15:01:00,
2013-01-12 07:06:00,37.0,24.0,30.09,NNE,22,2.3,2.3,59,0.00,CLR,OVC,0.00,0.0,WeatherDisplay:10.37,2013-01-12 15:06:00,
2013-01-12 07:11:00,37.0,24.0,30.09,NW,315,1.3,1.7,59,0.00,CLR,OVC,0.00,0.0,WeatherDisplay:10.37,2013-01-12 15:11:00,
2013-01-12 07:16:00,36.9,23.9,30.09,NW,315,2.6,2.6,59,0.00,CLR,OVC,0.00,0.0,WeatherDisplay:10.37,2013-01-12 15:16:00,
2013-01-12 07:21:00,36.9,23.9,30.09,WNW,292,2.3,2.3,59,0.00,CLR,OVC,0.00,0.0,WeatherDisplay:10.37,2013-01-12 15:21:00,
2013-01-12 07:26:00,36.9,23.9,30.09,NE,45,2.3,2.3,59,0.00,CLR,OVC,0.00,0.0,WeatherDisplay:10.37,2013-01-12 15:26:00,
2013-01-12 07:31:00,36.7,23.7,30.09,WNW,292,2.3,2.3,59,0.00,CLR,OVC,0.00,0.0,WeatherDisplay:10.37,2013-01-12 15:31:00,
2013-01-12 07:36:00,36.3,22.9,30.09,NW,315,3.5,3.5,58,0.00,CLR,OVC,0.00,0.0,WeatherDisplay:10.37,2013-01-12 15:36:00,
2013-01-12 07:41:00,36.3,23.3,30.09,NW,315,2.3,2.3,59,0.00,CLR,OVC,0.00,0.0,WeatherDisplay:10.37,2013-01-12 15:41:00,
2013-01-12 07:46:00,36.7,23.7,30.09,NNW,338,2.5,2.5,59,0.00,CLR,OVC,0.00,0.0,WeatherDisplay:10.37,2013-01-12 15:46:00,
2013-01-12 07:51:00,36.9,23.9,30.09,NE,45,3.5,3.5,59,0.00,CLR,OVC,0.00,0.0,WeatherDisplay:10.37,2013-01-12 15:51:00,
2013-01-12 07:56:00,36.9,23.9,30.09,NW,315,3.5,3.5,59,0.00,CLR,OVC,0.00,0.0,WeatherDisplay:10.37,2013-01-12 15:56:00,
2013-01-12 08:01:00,36.7,23.7,30.09,NNW,338,3.5,3.5,59,0.00,CLR,OVC,0.00,0.0,WeatherDisplay:10.37,2013-01-12 16:01:00,
2013-01-12 08:06:00,37.2,24.2,30.09,NW,315,1.7,2.0,59,0.00,CLR,OVC,0.00,0.0,WeatherDisplay:10.37,2013-01-12 16:06:00,
2013-01-12 08:11:00,37.0,24.0,30.09,NW,315,4.6,4.6,59,0.00,CLR,OVC,0.00,0.0,WeatherDisplay:10.37,2013-01-12 16:11:00,
2013-01-12 08:16:00,37.2,24.2,30.09,NNE,22,2.3,2.3,59,0.00,CLR,OVC,0.00,0.0,WeatherDisplay:10.37,2013-01-12 16:16:00,
2013-01-12 08:21:00,37.4,24.0,30.09,NNW,338,4.6,4.6,58,0.00,CLR,OVC,0.00,0.0,WeatherDisplay:10.37,2013-01-12 16:21:00,
2013-01-12 08:26:00,37.6,24.1,30.09,WNW,292,2.3,2.3,58,0.00,CLR,OVC,0.00,0.0,WeatherDisplay:10.37,2013-01-12 16:26:00,
2013-01-12 08:31:00,37.8,24.3,30.09,NNW,338,2.3,2.3,58,0.00,CLR,OVC,0.00,0.0,WeatherDisplay:10.37,2013-01-12 16:31:00,
2013-01-12 08:36:00,37.9,24.0,30.09,NW,315,2.3,2.3,57,0.00,CLR,OVC,0.00,0.0,WeatherDisplay:10.37,2013-01-12 16:36:00,
2013-01-12 08:41:00,38.1,24.2,30.09,North,0,2.3,2.3,57,0.00,CLR,OVC,0.00,0.0,WeatherDisplay:10.37,2013-01-12 16:41:00,
2013-01-12 08:46:00,38.3,24.4,30.09,NNE,22,4.9,4.9,57,0.00,CLR,OVC,0.00,0.0,WeatherDisplay:10.37,2013-01-12 16:46:00,
2013-01-12 08:51:00,38.5,24.6,30.09,NNW,338,2.3,2.3,57,0.00,CLR,OVC,0.00,0.0,WeatherDisplay:10.37,2013-01-12 16:51:00,
2013-01-12 08:56:00,38.5,24.6,30.09,NW,315,2.3,2.3,57,0.00,CLR,OVC,0.00,0.0,WeatherDisplay:10.37,2013-01-12 16:56:00,
2013-01-12 09:01:00,38.7,24.3,30.09,West,270,4.6,4.6,56,0.00,CLR,OVC,0.00,0.0,WeatherDisplay:10.37,2013-01-12 17:01:00,
2013-01-12 09:06:00,38.7,23.9,30.09,NNE,22,5.1,5.1,55,0.00,CLR,OVC,0.00,0.0,WeatherDisplay:10.37,2013-01-12 17:06:00,
2013-01-12 09:11:00,38.7,23.9,30.09,NNW,338,4.6,4.6,55,0.00,CLR,OVC,0.00,0.0,WeatherDisplay:10.37,2013-01-12 17:11:00,
2013-01-12 09:16:00,38.8,23.6,30.09,NW,315,5.8,5.8,54,0.00,CLR,OVC,0.00,0.0,WeatherDisplay:10.37,2013-01-12 17:16:00,
2013-01-12 09:21:00,39.0,23.8,30.09,NNE,22,5.8,5.8,54,0.00,CLR,OVC,0.00,0.0,WeatherDisplay:10.37,2013-01-12 17:21:00,
2013-01-12 09:26:00,39.0,23.8,30.09,NW,315,2.3,2.6,54,0.00,CLR,OVC,0.00,0.0,WeatherDisplay:10.37,2013-01-12 17:26:00,
2013-01-12 09:31:00,39.4,24.1,30.12,NE,45,2.3,2.3,54,0.00,CLR,OVC,0.00,0.0,WeatherDisplay:10.37,2013-01-12 17:31:00,
2013-01-12 09:36:00,39.6,24.3,30.12,NNW,338,3.0,3.0,54,0.00,CLR,OVC,0.00,0.0,WeatherDisplay:10.37,2013-01-12 17:36:00,
2013-01-12 09:41:00,39.6,23.8,30.12,NW,315,4.7,4.7,53,0.00,CLR,OVC,0.00,0.0,WeatherDisplay:10.37,2013-01-12 17:41:00,
2013-01-12 09:46:00,39.6,23.4,30.12,NE,45,5.8,5.8,52,0.00,CLR,OVC,0.00,0.0,WeatherDisplay:10.37,2013-01-12 17:46:00,
2013-01-12 09:51:00,39.6,23.4,30.12,NNE,22,4.6,4.6,52,0.00,CLR,OVC,0.00,0.0,WeatherDisplay:10.37,2013-01-12 17:51:00,
2013-01-12 09:56:00,39.7,23.5,30.12,NNW,338,5.2,5.2,52,0.00,CLR,OVC,0.00,0.0,WeatherDisplay:10.37,2013-01-12 17:56:00,
2013-01-12 10:01:00,39.9,23.7,30.12,WNW,292,3.5,3.5,52,0.00,CLR,OVC,0.00,0.0,WeatherDisplay:10.37,2013-01-12 18:01:00,
2013-01-12 10:06:00,40.3,24.5,30.12,NNW,338,4.6,4.6,53,0.00,CLR,OVC,0.00,0.0,WeatherDisplay:10.37,2013-01-12 18:06:00,
2013-01-12 10:11:00,40.3,24.0,30.11,NW,315,3.5,3.5,52,0.00,CLR,OVC,0.00,0.0,WeatherDisplay:10.37,2013-01-12 18:11:00,
2013-01-12 10:16:00,40.3,24.0,30.11,NW,315,4.6,4.6,52,0.00,CLR,OVC,0.00,0.0,WeatherDisplay:10.37,2013-01-12 18:16:00,
2013-01-12 10:21:00,40.5,24.2,30.11,NNW,338,4.9,4.9,52,0.00,CLR,OVC,0.00,0.0,WeatherDisplay:10.37,2013-01-12 18:21:00,
2013-01-12 10:26:00,40.6,24.4,30.11,NNW,338,3.5,3.5,52,0.00,CLR,OVC,0.00,0.0,WeatherDisplay:10.37,2013-01-12 18:26:00,
2013-01-12 10:31:00,40.8,24.5,30.11,NNE,22,3.5,3.6,52,0.00,CLR,OVC,0.00,0.0,WeatherDisplay:10.37,2013-01-12 18:31:00,
2013-01-12 10:36:00,41.0,24.2,30.11,NW,315,2.3,3.0,51,0.00,CLR,OVC,0.00,0.0,WeatherDisplay:10.37,2013-01-12 18:36:00,
2013-01-12 10:41:00,41.2,24.9,30.11,West,270,1.2,2.4,52,0.00,CLR,OVC,0.00,0.0,WeatherDisplay:10.37,2013-01-12 18:41:00,
2013-01-12 10:46:00,41.5,24.7,30.11,NW,315,5.3,5.3,51,0.00,CLR,OVC,0.00,0.0,WeatherDisplay:10.37,2013-01-12 18:46:00,
2013-01-12 10:51:00,41.9,25.1,30.11,NNW,338,3.5,3.5,51,0.00,CLR,OVC,0.00,0.0,WeatherDisplay:10.37,2013-01-12 18:51:00,
2013-01-12 10:56:00,42.1,24.3,30.11,NW,315,3.5,3.5,49,0.00,CLR,OVC,0.00,0.0,WeatherDisplay:10.37,2013-01-12 18:56:00,
2013-01-12 11:01:00,42.3,23.9,30.11,West,270,3.5,3.5,48,0.00,CLR,OVC,0.00,0.0,WeatherDisplay:10.37,2013-01-12 19:01:00,
2013-01-12 11:06:00,42.6,24.3,30.11,NW,315,3.7,3.7,48,0.00,CLR,OVC,0.00,0.0,WeatherDisplay:10.37,2013-01-12 19:06:00,
2013-01-12 11:11:00,43.0,24.1,30.10,NW,315,5.8,5.8,47,0.00,CLR,OVC,0.00,0.0,WeatherDisplay:10.37,2013-01-12 19:11:00,
2013-01-12 11:16:00,43.3,24.4,30.10,WSW,248,4.6,4.6,47,0.00,CLR,OVC,0.00,0.0,WeatherDisplay:10.37,2013-01-12 19:16:00,
2013-01-12 11:21:00,43.5,23.6,30.10,NW,315,4.6,4.6,45,0.00,CLR,OVC,0.00,0.0,WeatherDisplay:10.37,2013-01-12 19:21:00,
2013-01-12 11:26:00,43.3,22.9,30.10,NW,315,4.6,4.6,44,0.00,CLR,OVC,0.00,0.0,WeatherDisplay:10.37,2013-01-12 19:26:00,
2013-01-12 11:31:00,43.7,23.7,30.09,West,270,5.8,5.8,45,0.00,CLR,OVC,0.00,0.0,WeatherDisplay:10.37,2013-01-12 19:31:00,
2013-01-12 11:36:00,44.2,23.7,30.09,NW,315,5.8,5.8,44,0.00,CLR,OVC,0.00,0.0,WeatherDisplay:10.37,2013-01-12 19:36:00,
2013-01-12 11:41:00,44.6,22.9,30.09,NNE,22,3.5,3.5,42,0.00,CLR,OVC,0.00,0.0,WeatherDisplay:10.37,2013-01-12 19:41:00,
2013-01-12 11:46:00,44.6,23.5,30.09,NW,315,6.9,6.9,43,0.00,CLR,OVC,0.00,0.0,WeatherDisplay:10.37,2013-01-12 19:46:00,
2013-01-12 11:51:00,45.3,24.1,30.09,NNE,22,6.9,6.9,43,0.00,CLR,OVC,0.00,0.0,WeatherDisplay:10.37,2013-01-12 19:51:00,
2013-01-12 11:56:00,45.3,22.4,30.09,WNW,292,5.8,5.8,40,0.00,CLR,OVC,0.00,0.0,WeatherDisplay:10.37,2013-01-12 19:56:00,
2013-01-12 12:01:00,45.7,22.1,30.09,West,270,5.8,5.8,39,0.00,CLR,OVC,0.00,0.0,WeatherDisplay:10.37,2013-01-12 20:01:00,
2013-01-12 12:06:00,45.7,21.5,30.09,NNE,22,3.5,3.5,38,0.00,CLR,OVC,0.00,0.0,WeatherDisplay:10.37,2013-01-12 20:06:00,
2013-01-12 12:11:00,45.7,21.5,30.09,NNE,22,3.5,3.5,38,0.00,CLR,OVC,0.00,0.0,WeatherDisplay:10.37,2013-01-12 20:11:00,
2013-01-12 12:16:00,45.9,17.6,30.09,NNE,22,6.9,6.9,32,0.00,CLR,OVC,0.00,0.0,WeatherDisplay:10.37,2013-01-12 20:16:00,
2013-01-12 12:21:00,46.2,17.9,30.09,WNW,292,6.9,6.9,32,0.00,CLR,OVC,0.00,0.0,WeatherDisplay:10.37,2013-01-12 20:21:00,
2013-01-12 12:26:00,46.6,17.5,30.09,NNW,338,6.9,6.9,31,0.00,CLR,OVC,0.00,0.0,WeatherDisplay:10.37,2013-01-12 20:26:00,
2013-01-12 12:31:00,46.2,17.9,30.06,NW,315,4.6,5.3,32,0.00,CLR,OVC,0.00,0.0,WeatherDisplay:10.37,2013-01-12 20:31:00,
2013-01-12 12:36:00,46.8,17.7,30.06,North,0,5.8,5.8,31,0.00,CLR,OVC,0.00,0.0,WeatherDisplay:10.37,2013-01-12 20:36:00,
2013-01-12 12:41:00,46.8,18.4,30.06,NNE,22,4.6,4.6,32,0.00,CLR,OVC,0.00,0.0,WeatherDisplay:10.37,2013-01-12 20:41:00,
2013-01-12 12:46:00,47.3,18.9,30.06,NW,315,9.2,9.2,32,0.00,CLR,OVC,0.00,0.0,WeatherDisplay:10.37,2013-01-12 20:46:00,
2013-01-12 12:51:00,47.3,18.1,30.06,SE,135,6.9,6.9,31,0.00,CLR,OVC,0.00,0.0,WeatherDisplay:10.37,2013-01-12 20:51:00,
2013-01-12 12:56:00,47.5,18.3,30.06,NW,315,4.6,4.6,31,0.00,CLR,OVC,0.00,0.0,WeatherDisplay:10.37,2013-01-12 20:56:00,
2013-01-12 13:01:00,47.3,17.4,30.06,NNW,338,5.8,5.8,30,0.00,CLR,OVC,0.00,0.0,WeatherDisplay:10.37,2013-01-12 21:01:00,
2013-01-12 13:06:00,47.3,17.4,30.06,WNW,292,3.5,3.5,30,0.00,CLR,OVC,0.00,0.0,WeatherDisplay:10.37,2013-01-12 21:06:00,
2013-01-12 13:11:00,47.1,18.0,30.05,NNW,338,5.8,5.8,31,0.00,CLR,OVC,0.00,0.0,WeatherDisplay:10.37,2013-01-12 21:11:00,
2013-01-12 13:16:00,47.3,18.1,30.05,NW,315,6.9,6.9,31,0.00,CLR,OVC,0.00,0.0,WeatherDisplay:10.37,2013-01-12 21:16:00,
2013-01-12 13:21:00,47.1,18.0,30.05,West,270,4.6,4.6,31,0.00,CLR,OVC,0.00,0.0,WeatherDisplay:10.37,2013-01-12 21:21:00,
2013-01-12 13:26:00,47.7,18.5,30.05,NW,315,8.1,8.1,31,0.00,CLR,OVC,0.00,0.0,WeatherDisplay:10.37,2013-01-12 21:26:00,
2013-01-12 13:31:00,47.8,18.6,30.05,WNW,292,6.9,6.9,31,0.00,CLR,OVC,0.00,0.0,WeatherDisplay:10.37,2013-01-12 21:31:00,
2013-01-12 13:36:00,48.0,16.4,30.05,NW,315,6.9,6.9,28,0.00,CLR,OVC,0.00,0.0,WeatherDisplay:10.37,2013-01-12 21:36:00,
2013-01-12 13:41:00,48.2,14.9,30.05,NW,315,4.6,4.6,26,0.00,CLR,OVC,0.00,0.0,WeatherDisplay:10.37,2013-01-12 21:41:00,
2013-01-12 13:46:00,48.4,14.1,30.05,West,270,5.8,5.8,25,0.00,CLR,OVC,0.00,0.0,WeatherDisplay:10.37,2013-01-12 21:46:00,
2013-01-12 13:51:00,48.2,14.0,30.05,West,270,4.6,4.6,25,0.00,CLR,OVC,0.00,0.0,WeatherDisplay:10.37,2013-01-12 21:51:00,
2013-01-12 13:56:00,48.2,14.9,30.05,West,270,3.5,3.5,26,0.00,CLR,OVC,0.00,0.0,WeatherDisplay:10.37,2013-01-12 21:56:00,
2013-01-12 14:01:00,48.2,14.0,30.05,NNW,338,4.6,4.6,25,0.00,CLR,OVC,0.00,0.0,WeatherDisplay:10.37,2013-01-12 22:01:00,
2013-01-12 14:06:00,48.4,13.2,30.05,NW,315,4.6,4.6,24,0.00,CLR,OVC,0.00,0.0,WeatherDisplay:10.37,2013-01-12 22:06:00,
2013-01-12 14:11:00,48.4,12.2,30.05,WNW,292,6.9,6.9,23,0.00,CLR,OVC,0.00,0.0,WeatherDisplay:10.37,2013-01-12 22:11:00,
2013-01-12 14:16:00,48.6,13.3,30.05,NNW,338,6.9,6.9,24,0.00,CLR,OVC,0.00,0.0,WeatherDisplay:10.37,2013-01-12 22:16:00,
2013-01-12 14:21:00,48.7,12.5,30.05,North,0,4.6,4.6,23,0.00,CLR,OVC,0.00,0.0,WeatherDisplay:10.37,2013-01-12 22:21:00,
2013-01-12 14:26:00,48.4,12.2,30.05,WNW,292,4.6,4.6,23,0.00,CLR,OVC,0.00,0.0,WeatherDisplay:10.37,2013-01-12 22:26:00,
2013-01-12 14:31:00,48.7,12.5,30.03,NW,315,4.9,4.9,23,0.00,CLR,OVC,0.00,0.0,WeatherDisplay:10.37,2013-01-12 22:31:00,
2013-01-12 14:36:00,48.7,11.5,30.03,WSW,248,3.9,3.9,22,0.00,CLR,OVC,0.00,0.0,WeatherDisplay:10.37,2013-01-12 22:36:00,
2013-01-12 14:41:00,48.6,12.4,30.03,West,270,3.5,3.5,23,0.00,CLR,OVC,0.00,0.0,WeatherDisplay:10.37,2013-01-12 22:41:00,
2013-01-12 14:46:00,48.6,12.4,30.03,NW,315,3.5,3.5,23,0.00,CLR,OVC,0.00,0.0,WeatherDisplay:10.37,2013-01-12 22:46:00,
2013-01-12 14:51:00,48.4,13.2,30.02,NW,315,3.5,3.5,24,0.00,CLR,OVC,0.00,0.0,WeatherDisplay:10.37,2013-01-12 22:51:00,
2013-01-12 14:56:00,48.4,12.2,30.02,WNW,292,4.6,4.6,23,0.00,CLR,OVC,0.00,0.0,WeatherDisplay:10.37,2013-01-12 22:56:00,
2013-01-12 15:01:00,48.6,11.4,30.02,WSW,248,5.9,5.9,22,0.00,CLR,OVC,0.00,0.0,WeatherDisplay:10.37,2013-01-12 23:01:00,
2013-01-12 15:06:00,48.7,11.5,30.02,NW,315,3.5,3.5,22,0.00,CLR,OVC,0.00,0.0,WeatherDisplay:10.37,2013-01-12 23:06:00,
2013-01-12 15:11:00,48.6,11.4,30.02,West,270,3.5,3.5,22,0.00,CLR,OVC,0.00,0.0,WeatherDisplay:10.37,2013-01-12 23:11:00,
2013-01-12 15:16:00,48.6,12.4,30.02,West,270,2.3,2.6,23,0.00,CLR,OVC,0.00,0.0,WeatherDisplay:10.37,2013-01-12 23:16:00,
2013-01-12 15:21:00,48.6,13.3,30.02,West,270,4.6,4.6,24,0.00,CLR,OVC,0.00,0.0,WeatherDisplay:10.37,2013-01-12 23:21:00,
2013-01-12 15:26:00,48.6,13.3,30.02,NNW,338,4.6,4.6,24,0.00,CLR,OVC,0.00,0.0,WeatherDisplay:10.37,2013-01-12 23:26:00,
2013-01-12 15:31:00,48.4,14.1,30.02,NNW,338,3.5,3.5,25,0.00,CLR,OVC,0.00,0.0,WeatherDisplay:10.37,2013-01-12 23:31:00,
2013-01-12 15:36:00,48.4,14.1,30.02,NW,315,2.3,2.3,25,0.00,CLR,OVC,0.00,0.0,WeatherDisplay:10.37,2013-01-12 23:36:00,
2013-01-12 15:41:00,47.8,13.7,30.02,ENE,68,2.3,2.3,25,0.00,CLR,OVC,0.00,0.0,WeatherDisplay:10.37,2013-01-12 23:41:00,
2013-01-12 15:46:00,47.8,14.6,30.02,NE,45,3.5,3.5,26,0.00,CLR,OVC,0.00,0.0,WeatherDisplay:10.37,2013-01-12 23:46:00,
2013-01-12 15:51:00,47.8,14.6,30.01,ENE,68,3.7,3.7,26,0.00,CLR,OVC,0.00,0.0,WeatherDisplay:10.37,2013-01-12 23:51:00,
2013-01-12 15:56:00,48.0,15.6,30.01,NE,45,2.3,2.3,27,0.00,CLR,OVC,0.00,0.0,WeatherDisplay:10.37,2013-01-12 23:56:00,
2013-01-12 16:01:00,47.8,14.6,30.01,NNE,22,2.4,2.4,26,0.00,CLR,OVC,0.00,0.0,WeatherDisplay:10.37,2013-01-13 00:01:00,
2013-01-12 16:06:00,47.7,13.5,30.01,NNE,22,2.3,2.3,25,0.00,CLR,OVC,0.00,0.0,WeatherDisplay:10.37,2013-01-13 00:06:00,
2013-01-12 16:11:00,47.7,12.6,30.01,ENE,68,2.3,2.3,24,0.00,CLR,OVC,0.00,0.0,WeatherDisplay:10.37,2013-01-13 00:11:00,
2013-01-12 16:17:00,47.7,12.6,30.01,NNE,22,3.5,3.5,24,0.00,CLR,OVC,0.00,0.0,WeatherDisplay:10.37,2013-01-13 00:17:00,
2013-01-12 16:22:00,47.5,11.5,30.01,NNW,338,3.5,3.5,23,0.00,CLR,OVC,0.00,0.0,WeatherDisplay:10.37,2013-01-13 00:22:00,
2013-01-12 16:27:00,47.5,12.4,30.01,NW,315,1.2,1.2,24,0.00,CLR,OVC,0.00,0.0,WeatherDisplay:10.37,2013-01-13 00:27:00,
2013-01-12 16:32:00,47.3,11.3,30.02,NW,315,2.3,2.3,23,0.00,CLR,OVC,0.00,0.0,WeatherDisplay:10.37,2013-01-13 00:32:00,
2013-01-12 16:37:00,47.3,10.3,30.02,NNE,22,3.5,3.5,22,0.00,CLR,OVC,0.00,0.0,WeatherDisplay:10.37,2013-01-13 00:37:00,
2013-01-12 16:42:00,47.1,10.2,30.02,NNE,22,2.3,2.3,22,0.00,CLR,OVC,0.00,0.0,WeatherDisplay:10.37,2013-01-13 00:42:00,
2013-01-12 16:47:00,47.1,11.2,30.02,NNE,22,2.3,2.3,23,0.00,CLR,OVC,0.00,0.0,WeatherDisplay:10.37,2013-01-13 00:47:00,
2013-01-12 16:52:00,46.9,11.0,30.02,North,0,0.0,0.9,23,0.00,CLR,OVC,0.00,0.0,WeatherDisplay:10.37,2013-01-13 00:52:00,
2013-01-12 16:57:00,46.9,12.0,30.02,North,0,2.3,2.3,24,0.00,CLR,OVC,0.00,0.0,WeatherDisplay:10.37,2013-01-13 00:57:00,
2013-01-12 17:02:00,46.8,11.8,30.02,NNW,338,2.3,2.3,24,0.00,CLR,OVC,0.00,0.0,WeatherDisplay:10.37,2013-01-13 01:02:00,
2013-01-12 17:07:00,46.6,11.7,30.02,NNW,338,1.2,1.2,24,0.00,CLR,OVC,0.00,0.0,WeatherDisplay:10.37,2013-01-13 01:07:00,
2013-01-12 17:12:00,46.4,12.4,30.02,NW,315,1.2,1.2,25,0.00,CLR,OVC,0.00,0.0,WeatherDisplay:10.37,2013-01-13 01:12:00,
2013-01-12 17:17:00,46.6,11.7,30.03,NW,315,1.2,1.2,24,0.00,CLR,OVC,0.00,0.0,WeatherDisplay:10.37,2013-01-13 01:17:00,
2013-01-12 17:22:00,45.9,12.9,30.03,West,270,0.0,0.0,26,0.00,CLR,OVC,0.00,0.0,WeatherDisplay:10.37,2013-01-13 01:22:00,
2013-01-12 17:27:00,45.9,13.7,30.03,NNE,22,0.0,0.0,27,0.00,CLR,OVC,0.00,0.0,WeatherDisplay:10.37,2013-01-13 01:27:00,
2013-01-12 17:32:00,45.7,14.4,30.03,NW,315,0.0,0.0,28,0.00,CLR,OVC,0.00,0.0,WeatherDisplay:10.37,2013-01-13 01:32:00,
2013-01-12 17:37:00,45.0,15.3,30.03,West,270,0.0,0.0,30,0.00,CLR,OVC,0.00,0.0,WeatherDisplay:10.37,2013-01-13 01:37:00,
2013-01-12 17:42:00,45.1,17.0,30.03,NW,315,0.0,0.0,32,0.00,CLR,OVC,0.00,0.0,WeatherDisplay:10.37,2013-01-13 01:42:00,
2013-01-12 17:47:00,45.0,16.8,30.03,NNW,338,0.0,0.0,32,0.00,CLR,OVC,0.00,0.0,WeatherDisplay:10.37,2013-01-13 01:47:00,
2013-01-12 17:52:00,44.8,17.4,30.03,SE,135,0.0,0.0,33,0.00,CLR,OVC,0.00,0.0,WeatherDisplay:10.37,2013-01-13 01:52:00,
2013-01-12 17:57:00,44.6,17.9,30.03,NNW,338,0.0,0.0,34,0.00,CLR,OVC,0.00,0.0,WeatherDisplay:10.37,2013-01-13 01:57:00,
2013-01-12 18:02:00,44.6,17.9,30.03,NW,315,0.0,0.0,34,0.00,CLR,OVC,0.00,0.0,WeatherDisplay:10.37,2013-01-13 02:02:00,
2013-01-12 18:07:00,45.0,18.2,30.03,NW,315,0.0,0.0,34,0.00,CLR,OVC,0.00,0.0,WeatherDisplay:10.37,2013-01-13 02:07:00,
2013-01-12 18:12:00,45.1,18.4,30.03,NNE,22,0.0,0.0,34,0.00,CLR,OVC,0.00,0.0,WeatherDisplay:10.37,2013-01-13 02:12:00,
2013-01-12 18:17:00,44.6,17.9,30.03,NNW,338,0.0,0.0,34,0.00,CLR,OVC,0.00,0.0,WeatherDisplay:10.37,2013-01-13 02:17:00,
2013-01-12 18:22:00,44.6,17.9,30.03,NNW,338,0.0,0.0,34,0.00,CLR,OVC,0.00,0.0,WeatherDisplay:10.37,2013-01-13 02:22:00,
2013-01-12 18:27:00,44.2,18.3,30.03,NE,45,0.0,0.0,35,0.00,CLR,OVC,0.00,0.0,WeatherDisplay:10.37,2013-01-13 02:27:00,
2013-01-12 18:32:00,44.2,18.3,30.03,NE,45,0.0,0.0,35,0.00,CLR,OVC,0.00,0.0,WeatherDisplay:10.37,2013-01-13 02:32:00,
2013-01-12 18:37:00,43.9,18.0,30.03,NE,45,0.0,0.0,35,0.00,CLR,OVC,0.00,0.0,WeatherDisplay:10.37,2013-01-13 02:37:00,
2013-01-12 18:42:00,43.5,17.6,30.03,NNE,22,0.0,0.0,35,0.00,CLR,OVC,0.00,0.0,WeatherDisplay:10.37,2013-01-13 02:42:00,
2013-01-12 18:47:00,43.3,17.5,30.03,West,270,0.0,0.0,35,0.00,CLR,OVC,0.00,0.0,WeatherDisplay:10.37,2013-01-13 02:47:00,
2013-01-12 18:52:00,43.3,18.1,30.03,WSW,248,0.0,0.0,36,0.00,CLR,OVC,0.00,0.0,WeatherDisplay:10.37,2013-01-13 02:52:00,
2013-01-12 18:57:00,43.5,18.3,30.03,NNW,338,0.0,0.0,36,0.00,CLR,OVC,0.00,0.0,WeatherDisplay:10.37,2013-01-13 02:57:00,
2013-01-12 19:02:00,43.3,18.8,30.03,WSW,248,0.0,0.0,37,0.00,CLR,OVC,0.00,0.0,WeatherDisplay:10.37,2013-01-13 03:02:00,
2013-01-12 19:07:00,43.2,18.0,30.03,West,270,0.0,0.0,36,0.00,CLR,OVC,0.00,0.0,WeatherDisplay:10.37,2013-01-13 03:07:00,
2013-01-12 19:12:00,42.8,17.7,30.02,WSW,248,0.0,0.1,36,0.00,CLR,OVC,0.00,0.0,WeatherDisplay:10.37,2013-01-13 03:12:00,
2013-01-12 19:17:00,43.3,18.8,30.02,NNE,22,0.0,0.1,37,0.00,CLR,OVC,0.00,0.0,WeatherDisplay:10.37,2013-01-13 03:17:00,
2013-01-12 19:22:00,43.2,19.2,30.02,NW,315,0.0,0.0,38,0.00,CLR,OVC,0.00,0.0,WeatherDisplay:10.37,2013-01-13 03:22:00,
2013-01-12 19:27:00,43.0,19.1,30.02,NW,315,0.0,0.0,38,0.00,CLR,OVC,0.00,0.0,WeatherDisplay:10.37,2013-01-13 03:27:00,
2013-01-12 19:32:00,42.8,19.5,30.03,NW,315,0.0,0.0,39,0.00,CLR,OVC,0.00,0.0,WeatherDisplay:10.37,2013-01-13 03:32:00,
2013-01-12 19:37:00,42.6,20.0,30.03,WNW,292,0.0,0.0,40,0.00,CLR,OVC,0.00,0.0,WeatherDisplay:10.37,2013-01-13 03:37:00,
2013-01-12 19:42:00,42.4,19.8,30.03,WSW,248,0.0,0.2,40,0.00,CLR,OVC,0.00,0.0,WeatherDisplay:10.37,2013-01-13 03:42:00,
2013-01-12 19:47:00,42.3,19.6,30.03,NNE,22,0.0,0.2,40,0.00,CLR,OVC,0.00,0.0,WeatherDisplay:10.37,2013-01-13 03:47:00,
2013-01-12 19:52:00,41.4,19.4,30.03,SW,225,0.0,0.1,41,0.00,CLR,OVC,0.00,0.0,WeatherDisplay:10.37,2013-01-13 03:52:00,
2013-01-12 19:57:00,41.2,19.8,30.03,ENE,68,0.0,0.0,42,0.00,CLR,OVC,0.00,0.0,WeatherDisplay:10.37,2013-01-13 03:57:00,
2013-01-12 20:02:00,41.4,19.4,30.03,ENE,68,0.0,0.0,41,0.00,CLR,OVC,0.00,0.0,WeatherDisplay:10.37,2013-01-13 04:02:00,
2013-01-12 20:07:00,40.8,19.5,30.03,ESE,112,0.0,0.0,42,0.00,CLR,OVC,0.00,0.0,WeatherDisplay:10.37,2013-01-13 04:07:00,
2013-01-12 20:12:00,40.3,19.5,30.03,WSW,248,0.0,0.0,43,0.00,CLR,OVC,0.00,0.0,WeatherDisplay:10.37,2013-01-13 04:12:00,
2013-01-12 20:17:00,40.8,20.0,30.03,NE,45,0.0,0.0,43,0.00,CLR,OVC,0.00,0.0,WeatherDisplay:10.37,2013-01-13 04:17:00,
2013-01-12 20:22:00,40.6,20.4,30.03,North,0,0.0,0.0,44,0.00,CLR,OVC,0.00,0.0,WeatherDisplay:10.37,2013-01-13 04:22:00,
2013-01-12 20:27:00,40.6,20.4,30.03,West,270,0.0,0.0,44,0.00,CLR,OVC,0.00,0.0,WeatherDisplay:10.37,2013-01-13 04:27:00,
2013-01-12 20:32:00,40.3,20.6,30.03,NW,315,0.0,0.0,45,0.00,CLR,OVC,0.00,0.0,WeatherDisplay:10.37,2013-01-13 04:32:00,
2013-01-12 20:37:00,40.1,20.4,30.03,West,270,0.0,0.0,45,0.00,CLR,OVC,0.00,0.0,WeatherDisplay:10.37,2013-01-13 04:37:00,
2013-01-12 20:42:00,40.1,21.0,30.03,NW,315,0.0,0.0,46,0.00,CLR,OVC,0.00,0.0,WeatherDisplay:10.37,2013-01-13 04:42:00,
2013-01-12 20:47:00,39.9,20.8,30.03,NW,315,0.0,0.0,46,0.00,CLR,OVC,0.00,0.0,WeatherDisplay:10.37,2013-01-13 04:47:00,
2013-01-12 20:52:00,39.2,20.1,30.03,West,270,0.0,0.0,46,0.00,CLR,OVC,0.00,0.0,WeatherDisplay:10.37,2013-01-13 04:52:00,
2013-01-12 20:57:00,39.2,20.6,30.03,WNW,292,0.0,0.0,47,0.00,CLR,OVC,0.00,0.0,WeatherDisplay:10.37,2013-01-13 04:57:00,
2013-01-12 21:00:00,38.9,20.9,30.03,West,276,0.0,0.0,48,0.00,CLR,OVC,0.00,0.0,WeatherDisplay:10.37,2013-01-13 05:00:00,
2013-01-12 21:03:00,38.8,20.8,30.03,West,270,0.0,0.0,48,0.00,CLR,OVC,0.00,0.0,WeatherDisplay:10.37,2013-01-13 05:03:00,
2013-01-12 21:08:00,39.0,21.0,30.03,NE,45,0.0,0.0,48,0.00,CLR,OVC,0.00,0.0,WeatherDisplay:10.37,2013-01-13 05:08:00,
2013-01-12 21:13:00,38.7,21.1,30.03,East,90,0.0,0.0,49,0.00,CLR,OVC,0.00,0.0,WeatherDisplay:10.37,2013-01-13 05:13:00,
2013-01-12 21:18:00,39.2,21.1,30.03,NE,45,0.0,0.0,48,0.00,CLR,OVC,0.00,0.0,WeatherDisplay:10.37,2013-01-13 05:18:00,
2013-01-12 21:23:00,38.8,20.8,30.03,NNE,22,0.0,0.0,48,0.00,CLR,OVC,0.00,0.0,WeatherDisplay:10.37,2013-01-13 05:23:00,
2013-01-12 21:28:00,38.5,21.0,30.03,West,270,0.0,0.0,49,0.00,CLR,OVC,0.00,0.0,WeatherDisplay:10.37,2013-01-13 05:28:00,
2013-01-12 21:33:00,38.5,21.4,30.04,NW,315,0.0,0.0,50,0.00,CLR,OVC,0.00,0.0,WeatherDisplay:10.37,2013-01-13 05:33:00,
2013-01-12 21:38:00,38.1,21.1,30.04,West,270,0.0,0.0,50,0.00,CLR,OVC,0.00,0.0,WeatherDisplay:10.37,2013-01-13 05:38:00,
2013-01-12 21:43:00,38.1,21.1,30.04,West,270,0.0,0.0,50,0.00,CLR,OVC,0.00,0.0,WeatherDisplay:10.37,2013-01-13 05:43:00,
2013-01-12 21:48:00,38.1,21.1,30.04,ESE,112,0.0,0.0,50,0.00,CLR,OVC,0.00,0.0,WeatherDisplay:10.37,2013-01-13 05:48:00,
2013-01-12 21:53:00,37.9,20.5,30.04,East,90,0.0,0.0,49,0.00,CLR,OVC,0.00,0.0,WeatherDisplay:10.37,2013-01-13 05:53:00,
2013-01-12 21:58:00,37.8,20.8,30.04,WNW,292,0.0,0.0,50,0.00,CLR,OVC,0.00,0.0,WeatherDisplay:10.37,2013-01-13 05:58:00,
2013-01-12 22:03:00,37.8,20.8,30.04,WSW,248,0.0,0.0,50,0.00,CLR,OVC,0.00,0.0,WeatherDisplay:10.37,2013-01-13 06:03:00,
2013-01-12 22:08:00,37.4,20.9,30.04,WNW,292,0.0,0.0,51,0.00,CLR,OVC,0.00,0.0,WeatherDisplay:10.37,2013-01-13 06:08:00,
2013-01-12 22:13:00,37.4,20.9,30.04,West,270,0.0,0.0,51,0.00,CLR,OVC,0.00,0.0,WeatherDisplay:10.37,2013-01-13 06:13:00,
2013-01-12 22:18:00,37.4,21.4,30.04,West,270,0.0,0.0,52,0.00,CLR,OVC,0.00,0.0,WeatherDisplay:10.37,2013-01-13 06:18:00,
2013-01-12 22:23:00,37.6,21.5,30.04,WNW,292,0.0,0.0,52,0.00,CLR,OVC,0.00,0.0,WeatherDisplay:10.37,2013-01-13 06:23:00,
2013-01-12 22:28:00,37.4,21.4,30.04,North,0,0.0,0.0,52,0.00,CLR,OVC,0.00,0.0,WeatherDisplay:10.37,2013-01-13 06:28:00,
2013-01-12 22:33:00,37.2,22.1,30.05,WNW,292,0.0,0.0,54,0.00,CLR,OVC,0.00,0.0,WeatherDisplay:10.37,2013-01-13 06:33:00,
2013-01-12 22:38:00,37.0,21.9,30.05,SE,135,0.0,0.0,54,0.00,CLR,OVC,0.00,0.0,WeatherDisplay:10.37,2013-01-13 06:38:00,
2013-01-12 22:43:00,37.0,21.9,30.05,NNE,22,0.0,0.0,54,0.00,CLR,OVC,0.00,0.0,WeatherDisplay:10.37,2013-01-13 06:43:00,
2013-01-12 22:48:00,36.9,22.2,30.05,NNE,22,0.0,0.0,55,0.00,CLR,OVC,0.00,0.0,WeatherDisplay:10.37,2013-01-13 06:48:00,
2013-01-12 22:53:00,36.9,22.2,30.06,WNW,292,0.0,0.0,55,0.00,CLR,OVC,0.00,0.0,WeatherDisplay:10.37,2013-01-13 06:53:00,
2013-01-12 22:58:00,36.7,22.0,30.06,NNW,338,0.0,0.0,55,0.00,CLR,OVC,0.00,0.0,WeatherDisplay:10.37,2013-01-13 06:58:00,
2013-01-12 23:03:00,37.0,21.9,30.06,NW,315,0.0,0.0,54,0.00,CLR,OVC,0.00,0.0,WeatherDisplay:10.37,2013-01-13 07:03:00,
2013-01-12 23:08:00,36.9,21.7,30.06,NW,315,0.0,0.1,54,0.00,CLR,OVC,0.00,0.0,WeatherDisplay:10.37,2013-01-13 07:08:00,
2013-01-12 23:13:00,36.7,21.6,30.06,NW,315,0.0,0.1,54,0.00,CLR,OVC,0.00,0.0,WeatherDisplay:10.37,2013-01-13 07:13:00,
2013-01-12 23:18:00,36.7,22.0,30.06,WNW,292,0.0,0.0,55,0.00,CLR,OVC,0.00,0.0,WeatherDisplay:10.37,2013-01-13 07:18:00,
2013-01-12 23:23:00,36.5,21.8,30.06,NW,315,1.2,1.2,55,0.00,CLR,OVC,0.00,0.0,WeatherDisplay:10.37,2013-01-13 07:23:00,
2013-01-12 23:28:00,36.7,22.0,30.06,WNW,292,2.3,2.3,55,0.00,CLR,OVC,0.00,0.0,WeatherDisplay:10.37,2013-01-13 07:28:00,
2013-01-12 23:33:00,36.5,21.8,30.11,West,270,0.0,0.7,55,0.00,CLR,OVC,0.00,0.0,WeatherDisplay:10.37,2013-01-13 07:33:00,
2013-01-12 23:38:00,36.9,22.2,30.11,NW,315,1.4,1.4,55,0.00,CLR,OVC,0.00,0.0,WeatherDisplay:10.37,2013-01-13 07:38:00,
2013-01-12 23:43:00,36.7,22.0,30.11,WNW,292,1.2,1.2,55,0.00,CLR,OVC,0.00,0.0,WeatherDisplay:10.37,2013-01-13 07:43:00,
2013-01-12 23:48:00,36.5,21.8,30.11,WNW,292,1.2,1.2,55,0.00,CLR,OVC,0.00,0.0,WeatherDisplay:10.37,2013-01-13 07:48:00,
2013-01-12 23:53:00,36.5,21.8,30.07,NW,315,1.2,1.2,55,0.00,CLR,OVC,0.00,0.0,WeatherDisplay:10.37,2013-01-13 07:53:00,
2013-01-12 23:58:00,36.7,22.0,30.07,NW,315,1.6,1.6,55,0.00,CLR,OVC,0.00,0.0,WeatherDisplay:10.37,2013-01-13 07:58:00,